createdAt,value
2023-05-19T00:00:23.215Z,10.99
2023-05-19T00:01:25.650Z,11.00
2023-05-19T00:02:24.747Z,10.97
2023-05-19T00:03:23.238Z,10.97
2023-05-19T00:04:23.200Z,10.97
2023-05-19T00:05:23.210Z,10.96
2023-05-19T00:06:23.341Z,10.94
2023-05-19T00:07:24.131Z,10.91
2023-05-19T00:08:23.634Z,10.94
2023-05-19T00:09:23.132Z,10.97
2023-05-19T00:10:23.154Z,10.96
2023-05-19T00:11:23.280Z,10.96
2023-05-19T00:12:23.128Z,10.91
2023-05-19T00:13:23.079Z,10.88
2023-05-19T00:14:23.810Z,10.86
2023-05-19T00:15:24.156Z,10.84
2023-05-19T00:16:23.196Z,10.84
2023-05-19T00:17:23.121Z,10.85
2023-05-19T00:18:23.053Z,10.84
2023-05-19T00:19:23.140Z,10.84
2023-05-19T00:20:24.374Z,10.81
2023-05-19T00:21:23.649Z,10.81
2023-05-19T00:22:22.986Z,10.78
2023-05-19T00:23:22.990Z,10.76
2023-05-19T00:24:22.989Z,10.76
2023-05-19T00:25:23.022Z,10.73
2023-05-19T00:26:22.989Z,10.71
2023-05-19T00:27:23.689Z,10.71
2023-05-19T00:28:22.980Z,10.74
2023-05-19T00:29:22.928Z,10.71
2023-05-19T00:30:22.970Z,10.70
2023-05-19T00:31:22.981Z,10.67
2023-05-19T00:32:22.916Z,10.68
2023-05-19T00:33:24.137Z,10.66
2023-05-19T00:34:23.670Z,10.67
2023-05-19T00:35:22.849Z,10.66
2023-05-19T00:36:22.851Z,10.64
2023-05-19T00:37:22.837Z,10.64
2023-05-19T00:38:22.934Z,10.66
2023-05-19T00:39:22.898Z,10.64
2023-05-19T00:40:22.839Z,10.63
2023-05-19T00:41:22.806Z,10.61
2023-05-19T00:42:22.790Z,10.60
2023-05-19T00:43:23.289Z,10.60
2023-05-19T00:44:22.800Z,10.60
2023-05-19T00:45:22.744Z,10.61
2023-05-19T00:46:24.165Z,10.60
2023-05-19T00:47:22.905Z,10.59
2023-05-19T00:48:22.728Z,10.59
2023-05-19T00:49:22.707Z,10.59
2023-05-19T00:50:22.716Z,10.53
2023-05-19T00:51:22.695Z,10.52
2023-05-19T00:52:23.669Z,10.52
2023-05-19T00:53:22.682Z,10.51
2023-05-19T00:54:22.708Z,10.48
2023-05-19T00:55:22.708Z,10.47
2023-05-19T00:56:22.682Z,10.45
2023-05-19T00:57:22.657Z,10.45
2023-05-19T00:58:22.625Z,10.42
2023-05-19T00:59:23.757Z,10.42
2023-05-19T01:00:23.157Z,10.41
2023-05-19T01:01:22.647Z,10.44
2023-05-19T01:02:22.665Z,10.42
2023-05-19T01:03:22.680Z,10.44
2023-05-19T01:04:22.545Z,10.42
2023-05-19T01:05:23.148Z,10.44
2023-05-19T01:06:22.530Z,10.42
2023-05-19T01:07:22.540Z,10.42
2023-05-19T01:08:22.567Z,10.40
2023-05-19T01:09:22.536Z,10.40
2023-05-19T01:10:22.496Z,10.34
2023-05-19T01:11:22.480Z,10.33
2023-05-19T01:12:23.649Z,10.32
2023-05-19T01:13:22.466Z,10.33
2023-05-19T01:14:22.444Z,10.30
2023-05-19T01:15:22.435Z,10.29
2023-05-19T01:16:22.548Z,10.27
2023-05-19T01:17:22.483Z,10.26
2023-05-19T01:18:23.159Z,10.25
2023-05-19T01:19:22.515Z,10.26
2023-05-19T01:20:22.397Z,10.27
2023-05-19T01:21:23.187Z,10.26
2023-05-19T01:22:22.410Z,10.26
2023-05-19T01:23:22.361Z,10.20
2023-05-19T01:24:22.348Z,10.23
2023-05-19T01:25:23.241Z,10.20
2023-05-19T01:26:22.337Z,10.17
2023-05-19T01:27:22.317Z,10.15
2023-05-19T01:28:22.299Z,10.14
2023-05-19T01:29:22.317Z,10.12
2023-05-19T01:30:22.319Z,10.14
2023-05-19T01:31:22.406Z,10.14
2023-05-19T01:32:22.339Z,10.15
2023-05-19T01:33:22.252Z,10.11
2023-05-19T01:34:24.696Z,10.11
2023-05-19T01:35:22.343Z,10.11
2023-05-19T01:36:22.241Z,10.14
2023-05-19T01:37:22.230Z,10.11
2023-05-19T01:38:22.265Z,10.09
2023-05-19T01:39:22.182Z,10.09
2023-05-19T01:40:22.207Z,10.09
2023-05-19T01:41:22.187Z,10.09
2023-05-19T01:42:22.193Z,10.04
2023-05-19T01:43:22.182Z,10.02
2023-05-19T01:44:22.155Z,9.99
2023-05-19T01:45:22.148Z,9.96
2023-05-19T01:46:22.220Z,9.94
2023-05-19T01:47:24.287Z,9.94
2023-05-19T01:48:25.195Z,9.93
2023-05-19T01:49:22.148Z,9.91
2023-05-19T01:50:22.171Z,9.90
2023-05-19T01:51:22.140Z,9.90
2023-05-19T01:52:22.042Z,9.89
2023-05-19T01:53:22.066Z,9.89
2023-05-19T01:54:22.064Z,9.89
2023-05-19T01:55:22.027Z,9.89
2023-05-19T01:56:21.997Z,9.87
2023-05-19T01:57:22.015Z,9.87
2023-05-19T01:58:21.996Z,9.86
2023-05-19T01:59:21.987Z,9.83
2023-05-19T02:00:24.176Z,9.81
2023-05-19T02:01:22.014Z,9.78
2023-05-19T02:02:21.958Z,9.76
2023-05-19T02:03:21.967Z,9.75
2023-05-19T02:04:21.923Z,9.76
2023-05-19T02:05:22.018Z,9.75
2023-05-19T02:06:21.981Z,9.75
2023-05-19T02:07:22.807Z,9.75
2023-05-19T02:08:21.896Z,9.75
2023-05-19T02:09:21.878Z,9.74
2023-05-19T02:10:21.869Z,9.75
2023-05-19T02:11:21.860Z,9.74
2023-05-19T02:12:21.865Z,9.71
2023-05-19T02:13:24.180Z,9.71
2023-05-19T02:14:21.837Z,9.71
2023-05-19T02:15:21.801Z,9.71
2023-05-19T02:16:21.944Z,9.69
2023-05-19T02:17:21.815Z,9.68
2023-05-19T02:18:24.174Z,9.69
2023-05-19T02:19:21.869Z,9.69
2023-05-19T02:20:21.770Z,9.68
2023-05-19T02:21:21.754Z,9.66
2023-05-19T02:22:21.762Z,9.61
2023-05-19T02:23:21.782Z,9.60
2023-05-19T02:24:21.702Z,9.57
2023-05-19T02:25:21.694Z,9.58
2023-05-19T02:26:23.342Z,9.57
2023-05-19T02:27:21.698Z,9.54
2023-05-19T02:28:21.656Z,9.56
2023-05-19T02:29:21.672Z,9.54
2023-05-19T02:30:21.636Z,9.57
2023-05-19T02:31:23.719Z,9.56
2023-05-19T02:32:21.736Z,9.54
2023-05-19T02:33:21.648Z,9.54
2023-05-19T02:34:21.598Z,9.58
2023-05-19T02:35:21.613Z,9.53
2023-05-19T02:36:21.631Z,9.56
2023-05-19T02:37:21.584Z,9.53
2023-05-19T02:38:21.643Z,9.53
2023-05-19T02:39:22.872Z,9.48
2023-05-19T02:40:21.593Z,9.48
2023-05-19T02:41:21.567Z,9.47
2023-05-19T02:42:21.528Z,9.47
2023-05-19T02:43:21.518Z,9.43
2023-05-19T02:44:23.738Z,9.42
2023-05-19T02:45:23.269Z,9.40
2023-05-19T02:46:21.537Z,9.39
2023-05-19T02:47:21.537Z,9.38
2023-05-19T02:48:21.474Z,9.39
2023-05-19T02:49:21.496Z,9.39
2023-05-19T02:50:21.456Z,9.38
2023-05-19T02:51:21.420Z,9.36
2023-05-19T02:52:23.175Z,9.36
2023-05-19T02:53:21.432Z,9.35
2023-05-19T02:54:21.396Z,9.36
2023-05-19T02:55:21.527Z,9.36
2023-05-19T02:56:21.362Z,9.35
2023-05-19T02:57:23.179Z,9.36
2023-05-19T02:58:22.271Z,9.38
2023-05-19T02:59:21.720Z,9.36
2023-05-19T03:00:21.339Z,9.35
2023-05-19T03:01:21.356Z,9.38
2023-05-19T03:02:21.401Z,9.36
2023-05-19T03:03:21.360Z,9.35
2023-05-19T03:04:21.304Z,9.36
2023-05-19T03:05:23.180Z,9.35
2023-05-19T03:06:21.273Z,9.36
2023-05-19T03:07:21.269Z,9.35
2023-05-19T03:08:21.272Z,9.36
2023-05-19T03:09:21.261Z,9.36
2023-05-19T03:10:22.724Z,9.35
2023-05-19T03:11:22.192Z,9.36
2023-05-19T03:12:21.236Z,9.35
2023-05-19T03:13:21.208Z,9.35
2023-05-19T03:14:21.188Z,9.33
2023-05-19T03:15:21.176Z,9.33
2023-05-19T03:16:21.264Z,9.33
2023-05-19T03:17:21.316Z,9.33
2023-05-19T03:18:22.334Z,9.32
2023-05-19T03:19:21.270Z,9.33
2023-05-19T03:20:21.131Z,9.31
2023-05-19T03:21:21.124Z,9.28
2023-05-19T03:22:21.118Z,9.26
2023-05-19T03:23:22.819Z,9.21
2023-05-19T03:24:21.820Z,9.18
2023-05-19T03:25:21.101Z,9.15
2023-05-19T03:26:21.082Z,9.14
2023-05-19T03:27:21.068Z,9.17
2023-05-19T03:28:21.086Z,9.15
2023-05-19T03:29:21.088Z,9.13
2023-05-19T03:30:21.110Z,9.14
2023-05-19T03:31:21.695Z,9.11
2023-05-19T03:32:21.202Z,9.10
2023-05-19T03:33:21.111Z,9.04
2023-05-19T03:34:20.989Z,8.99
2023-05-19T03:35:20.991Z,8.96
2023-05-19T03:36:22.709Z,8.92
2023-05-19T03:37:21.705Z,8.84
2023-05-19T03:38:20.930Z,8.80
2023-05-19T03:39:20.921Z,8.77
2023-05-19T03:40:20.946Z,8.74
2023-05-19T03:41:20.919Z,8.73
2023-05-19T03:42:21.729Z,8.70
2023-05-19T03:43:20.884Z,8.68
2023-05-19T03:44:20.894Z,8.65
2023-05-19T03:45:20.908Z,8.65
2023-05-19T03:46:21.052Z,8.62
2023-05-19T03:47:20.880Z,8.62
2023-05-19T03:48:21.451Z,8.62
2023-05-19T03:49:22.727Z,8.62
2023-05-19T03:50:21.744Z,8.62
2023-05-19T03:51:20.871Z,8.62
2023-05-19T03:52:20.781Z,8.63
2023-05-19T03:53:20.803Z,8.63
2023-05-19T03:54:20.783Z,8.63
2023-05-19T03:55:21.703Z,8.63
2023-05-19T03:56:20.777Z,8.66
2023-05-19T03:57:20.719Z,8.65
2023-05-19T03:58:20.858Z,8.65
2023-05-19T03:59:20.745Z,8.65
2023-05-19T04:00:20.722Z,8.65
2023-05-19T04:01:20.701Z,8.63
2023-05-19T04:02:22.293Z,8.65
2023-05-19T04:03:21.411Z,8.65
2023-05-19T04:04:20.737Z,8.62
2023-05-19T04:05:20.663Z,8.63
2023-05-19T04:06:20.636Z,8.62
2023-05-19T04:07:20.652Z,8.61
2023-05-19T04:08:21.317Z,8.59
2023-05-19T04:09:20.623Z,8.58
2023-05-19T04:10:20.620Z,8.59
2023-05-19T04:11:20.639Z,8.56
2023-05-19T04:12:21.228Z,8.56
2023-05-19T04:13:20.582Z,8.56
2023-05-19T04:14:20.589Z,8.56
2023-05-19T04:15:22.203Z,8.53
2023-05-19T04:16:21.303Z,8.56
2023-05-19T04:17:20.515Z,8.55
2023-05-19T04:18:20.519Z,8.53
2023-05-19T04:19:20.554Z,8.53
2023-05-19T04:20:20.517Z,8.52
2023-05-19T04:21:21.204Z,8.53
2023-05-19T04:22:20.477Z,8.52
2023-05-19T04:23:20.474Z,8.52
2023-05-19T04:24:20.447Z,8.52
2023-05-19T04:25:20.454Z,8.48
2023-05-19T04:26:20.428Z,8.48
2023-05-19T04:27:20.423Z,8.47
2023-05-19T04:28:20.476Z,8.48
2023-05-19T04:29:21.240Z,8.50
2023-05-19T04:30:20.390Z,8.52
2023-05-19T04:31:20.492Z,8.50
2023-05-19T04:32:20.354Z,8.52
2023-05-19T04:33:20.385Z,8.53
2023-05-19T04:34:21.215Z,8.55
2023-05-19T04:35:20.327Z,8.53
2023-05-19T04:36:20.320Z,8.55
2023-05-19T04:38:37.968Z,8.56
2023-05-19T04:39:37.945Z,8.58
2023-05-19T04:40:38.011Z,8.56
2023-05-19T04:41:37.921Z,8.56
2023-05-19T04:42:37.928Z,8.56
2023-05-19T04:43:37.917Z,8.55
2023-05-19T04:44:37.888Z,8.53
2023-05-19T04:45:37.899Z,8.55
2023-05-19T04:46:37.930Z,8.55
2023-05-19T04:47:37.892Z,8.53
2023-05-19T04:48:37.849Z,8.53
2023-05-19T04:49:37.843Z,8.52
2023-05-19T04:50:37.826Z,8.52
2023-05-19T04:51:37.882Z,8.52
2023-05-19T04:52:37.832Z,8.53
2023-05-19T04:53:37.798Z,8.56
2023-05-19T04:54:37.796Z,8.55
2023-05-19T04:55:37.773Z,8.53
2023-05-19T04:56:37.797Z,8.55
2023-05-19T04:57:37.758Z,8.55
2023-05-19T04:58:38.716Z,8.55
2023-05-19T04:59:37.742Z,8.56
2023-05-19T05:00:37.722Z,8.53
2023-05-19T05:01:37.814Z,8.55
2023-05-19T05:02:37.768Z,8.56
2023-05-19T05:03:37.760Z,8.56
2023-05-19T05:04:37.692Z,8.58
2023-05-19T05:05:38.379Z,8.58
2023-05-19T05:06:37.710Z,8.58
2023-05-19T05:07:37.715Z,8.59
2023-05-19T05:08:37.658Z,8.59
2023-05-19T05:09:37.644Z,8.62
2023-05-19T05:10:37.671Z,8.62
2023-05-19T05:11:37.640Z,8.62
2023-05-19T05:12:38.383Z,8.61
2023-05-19T05:13:38.391Z,8.62
2023-05-19T05:14:37.669Z,8.63
2023-05-19T05:15:37.592Z,8.62
2023-05-19T05:16:37.646Z,8.66
2023-05-19T05:17:37.731Z,8.66
2023-05-19T05:18:38.382Z,8.68
2023-05-19T05:19:37.527Z,8.70
2023-05-19T05:20:37.612Z,8.71
2023-05-19T05:21:37.508Z,8.71
2023-05-19T05:22:37.525Z,8.74
2023-05-19T05:23:38.373Z,8.74
2023-05-19T05:24:37.485Z,8.77
2023-05-19T05:25:38.967Z,8.79
2023-05-19T05:26:38.472Z,8.79
2023-05-19T05:27:37.496Z,8.79
2023-05-19T05:28:37.453Z,8.80
2023-05-19T05:29:37.452Z,8.83
2023-05-19T05:30:37.425Z,8.86
2023-05-19T05:31:38.389Z,8.86
2023-05-19T05:32:37.498Z,8.89
2023-05-19T05:33:37.469Z,8.91
2023-05-19T05:34:37.394Z,8.92
2023-05-19T05:35:37.375Z,8.95
2023-05-19T05:36:37.373Z,8.96
2023-05-19T05:37:37.361Z,8.99
2023-05-19T05:38:38.887Z,8.99
2023-05-19T05:39:37.903Z,9.02
2023-05-19T05:40:37.322Z,9.04
2023-05-19T05:41:37.418Z,9.05
2023-05-19T05:42:37.336Z,9.10
2023-05-19T05:43:37.327Z,9.11
2023-05-19T05:44:37.899Z,9.14
2023-05-19T05:45:37.340Z,9.15
2023-05-19T05:46:37.303Z,9.18
2023-05-19T05:47:37.267Z,9.20
2023-05-19T05:48:37.242Z,9.23
2023-05-19T05:49:37.222Z,9.23
2023-05-19T05:50:37.204Z,9.24
2023-05-19T05:51:37.949Z,9.26
2023-05-19T05:52:37.892Z,9.28
2023-05-19T05:53:37.215Z,9.29
2023-05-19T05:54:37.206Z,9.32
2023-05-19T05:55:37.160Z,9.35
2023-05-19T05:56:37.150Z,9.38
2023-05-19T05:57:37.905Z,9.40
2023-05-19T05:58:37.474Z,9.43
2023-05-19T05:59:37.107Z,9.46
2023-05-19T06:00:37.096Z,9.50
2023-05-19T06:01:37.135Z,9.54
2023-05-19T06:02:37.403Z,9.56
2023-05-19T06:03:37.165Z,9.58
2023-05-19T06:04:37.122Z,9.61
2023-05-19T06:05:38.013Z,9.65
2023-05-19T06:06:37.040Z,9.71
2023-05-19T06:07:37.074Z,9.72
2023-05-19T06:08:37.014Z,9.75
2023-05-19T06:09:37.012Z,9.78
2023-05-19T06:10:37.925Z,9.81
2023-05-19T06:11:37.013Z,9.84
2023-05-19T06:12:36.998Z,9.89
2023-05-19T06:13:37.936Z,9.91
2023-05-19T06:14:36.964Z,9.96
2023-05-19T06:15:36.978Z,10.01
2023-05-19T06:16:36.996Z,10.05
2023-05-19T06:17:36.976Z,10.08
2023-05-19T06:18:36.983Z,10.11
2023-05-19T06:19:36.909Z,10.15
2023-05-19T06:20:36.940Z,10.18
2023-05-19T06:21:36.915Z,10.23
2023-05-19T06:22:36.864Z,10.26
2023-05-19T06:23:37.412Z,10.30
2023-05-19T06:24:38.751Z,10.34
2023-05-19T06:25:36.854Z,10.41
2023-05-19T06:26:39.432Z,10.44
2023-05-19T06:27:36.875Z,10.48
2023-05-19T06:28:36.816Z,10.53
2023-05-19T06:29:37.018Z,10.59
2023-05-19T06:30:36.829Z,10.61
2023-05-19T06:31:36.909Z,10.67
2023-05-19T06:32:36.805Z,10.68
2023-05-19T06:33:36.806Z,10.73
2023-05-19T06:34:37.449Z,10.76
2023-05-19T06:35:36.753Z,10.79
2023-05-19T06:36:37.422Z,10.84
2023-05-19T06:37:36.737Z,10.86
2023-05-19T06:38:36.701Z,10.89
2023-05-19T06:39:39.058Z,10.94
2023-05-19T06:40:36.729Z,10.97
2023-05-19T06:41:36.695Z,11.00
2023-05-19T06:42:36.659Z,11.04
2023-05-19T06:43:36.655Z,11.06
2023-05-19T06:44:39.442Z,11.10
2023-05-19T06:45:36.665Z,11.11
2023-05-19T06:46:36.667Z,11.15
2023-05-19T06:47:36.644Z,11.19
2023-05-19T06:48:36.635Z,11.19
2023-05-19T06:49:36.736Z,11.24
2023-05-19T06:50:36.592Z,11.25
2023-05-19T06:51:36.577Z,11.28
2023-05-19T06:52:38.922Z,11.32
2023-05-19T06:53:36.568Z,11.32
2023-05-19T06:54:36.608Z,11.36
2023-05-19T06:55:43.883Z,11.39
2023-05-19T06:56:37.561Z,11.40
2023-05-19T06:57:38.567Z,11.43
2023-05-19T06:58:38.033Z,11.51
2023-05-19T06:59:36.518Z,11.51
2023-05-19T07:00:36.578Z,11.52
2023-05-19T07:01:36.487Z,11.57
2023-05-19T07:02:36.629Z,11.57
2023-05-19T07:03:36.514Z,11.60
2023-05-19T07:04:36.454Z,11.61
2023-05-19T07:05:38.918Z,11.62
2023-05-19T07:06:36.444Z,11.65
2023-05-19T07:07:36.439Z,11.69
2023-05-19T07:08:36.388Z,11.70
2023-05-19T07:09:36.410Z,11.72
2023-05-19T07:10:38.925Z,11.72
2023-05-19T07:11:37.932Z,11.76
2023-05-19T07:12:36.359Z,11.79
2023-05-19T07:13:36.372Z,11.80
2023-05-19T07:14:36.401Z,11.83
2023-05-19T07:15:36.347Z,11.86
2023-05-19T07:16:36.389Z,11.90
2023-05-19T07:17:36.310Z,11.90
2023-05-19T07:18:38.447Z,11.96
2023-05-19T07:19:36.283Z,11.99
2023-05-19T07:20:36.310Z,12.02
2023-05-19T07:21:36.257Z,12.07
2023-05-19T07:22:36.241Z,12.09
2023-05-19T07:23:36.344Z,12.14
2023-05-19T07:24:37.594Z,12.17
2023-05-19T07:25:36.217Z,12.20
2023-05-19T07:26:36.210Z,12.21
2023-05-19T07:27:36.206Z,12.27
2023-05-19T07:28:36.217Z,12.31
2023-05-19T07:29:36.179Z,12.32
2023-05-19T07:30:36.179Z,12.35
2023-05-19T07:31:38.158Z,12.39
2023-05-19T07:32:36.222Z,12.41
2023-05-19T07:33:36.152Z,12.45
2023-05-19T07:34:36.122Z,12.46
2023-05-19T07:35:36.113Z,12.47
2023-05-19T07:36:38.425Z,12.52
2023-05-19T07:37:37.429Z,12.56
2023-05-19T07:38:36.131Z,12.56
2023-05-19T07:39:36.073Z,12.59
2023-05-19T07:40:36.072Z,12.62
2023-05-19T07:41:36.591Z,12.65
2023-05-19T07:42:36.136Z,12.67
2023-05-19T07:43:36.082Z,12.70
2023-05-19T07:44:37.016Z,12.71
2023-05-19T07:45:36.026Z,12.75
2023-05-19T07:46:36.082Z,12.77
2023-05-19T07:47:36.026Z,12.78
2023-05-19T07:48:35.994Z,12.82
2023-05-19T07:49:37.954Z,12.85
2023-05-19T07:50:37.434Z,12.87
2023-05-19T07:51:36.150Z,12.89
2023-05-19T07:52:35.943Z,12.92
2023-05-19T07:53:35.921Z,12.95
2023-05-19T07:54:35.963Z,12.97
2023-05-19T07:55:37.432Z,13.01
2023-05-19T07:56:36.012Z,13.05
2023-05-19T07:57:35.980Z,13.08
2023-05-19T07:58:35.871Z,13.14
2023-05-19T07:59:35.943Z,13.19
2023-05-19T08:00:35.976Z,13.23
2023-05-19T08:01:35.852Z,13.28
2023-05-19T08:02:37.533Z,13.30
2023-05-19T08:03:37.102Z,13.33
2023-05-19T08:04:35.914Z,13.38
2023-05-19T08:05:35.810Z,13.42
2023-05-19T08:06:35.819Z,13.44
2023-05-19T08:07:35.774Z,13.45
2023-05-19T08:08:36.998Z,13.45
2023-05-19T08:09:36.432Z,13.48
2023-05-19T08:10:35.861Z,13.52
2023-05-19T08:11:35.742Z,13.52
2023-05-19T08:12:35.735Z,13.54
2023-05-19T08:13:35.712Z,13.54
2023-05-19T08:14:35.705Z,13.54
2023-05-19T08:15:35.740Z,13.57
2023-05-19T08:16:36.950Z,13.59
2023-05-19T08:17:35.732Z,13.60
2023-05-19T08:18:35.667Z,13.62
2023-05-19T08:19:35.651Z,13.64
2023-05-19T08:20:35.870Z,13.67
2023-05-19T08:21:36.987Z,13.67
2023-05-19T08:22:36.440Z,13.67
2023-05-19T08:23:35.599Z,13.69
2023-05-19T08:24:35.631Z,13.69
2023-05-19T08:25:35.639Z,13.67
2023-05-19T08:26:37.648Z,13.67
2023-05-19T08:27:35.578Z,13.67
2023-05-19T08:28:37.574Z,13.67
2023-05-19T08:29:36.449Z,13.67
2023-05-19T08:30:35.535Z,13.69
2023-05-19T08:31:35.562Z,13.69
2023-05-19T08:32:35.555Z,13.71
2023-05-19T08:33:35.584Z,13.71
2023-05-19T08:34:36.556Z,13.71
2023-05-19T08:35:35.565Z,13.73
2023-05-19T08:36:35.464Z,13.77
2023-05-19T08:37:35.468Z,13.79
2023-05-19T08:38:35.501Z,13.82
2023-05-19T08:39:35.459Z,13.85
2023-05-19T08:40:35.582Z,13.88
2023-05-19T08:41:36.575Z,13.92
2023-05-19T08:42:36.452Z,13.96
2023-05-19T08:43:35.398Z,14.00
2023-05-19T08:44:35.394Z,14.03
2023-05-19T08:45:35.533Z,14.04
2023-05-19T08:46:35.415Z,14.07
2023-05-19T08:47:36.524Z,14.12
2023-05-19T08:48:35.393Z,14.14
2023-05-19T08:49:35.326Z,14.20
2023-05-19T08:50:35.463Z,14.21
2023-05-19T08:51:35.328Z,14.25
2023-05-19T08:52:35.299Z,14.28
2023-05-19T08:53:35.306Z,14.36
2023-05-19T08:54:35.286Z,14.42
2023-05-19T08:55:36.035Z,14.43
2023-05-19T08:56:35.255Z,14.45
2023-05-19T08:57:35.321Z,14.47
2023-05-19T08:58:35.240Z,14.52
2023-05-19T08:59:35.299Z,14.57
2023-05-19T09:00:37.067Z,14.60
2023-05-19T09:02:35.259Z,14.69
2023-05-19T09:03:35.225Z,14.72
2023-05-19T09:04:35.268Z,14.78
2023-05-19T09:05:35.505Z,14.81
2023-05-19T09:06:35.240Z,14.84
2023-05-19T09:07:36.071Z,14.84
2023-05-19T09:08:35.187Z,14.86
2023-05-19T09:09:35.110Z,14.86
2023-05-19T09:10:35.124Z,14.91
2023-05-19T09:11:35.116Z,14.92
2023-05-19T09:12:35.088Z,14.92
2023-05-19T09:13:35.992Z,14.94
2023-05-19T09:14:35.066Z,14.99
2023-05-19T09:15:35.272Z,15.03
2023-05-19T09:16:35.101Z,15.11
2023-05-19T09:17:35.071Z,15.13
2023-05-19T09:18:35.044Z,15.14
2023-05-19T09:19:35.106Z,15.19
2023-05-19T09:20:35.010Z,15.20
2023-05-19T09:21:35.055Z,15.25
2023-05-19T09:22:34.970Z,15.25
2023-05-19T09:23:34.975Z,15.31
2023-05-19T09:24:34.986Z,15.35
2023-05-19T09:25:35.233Z,15.36
2023-05-19T09:26:35.538Z,15.38
2023-05-19T09:27:34.901Z,15.41
2023-05-19T09:28:34.912Z,15.41
2023-05-19T09:29:34.911Z,15.41
2023-05-19T09:30:34.913Z,15.44
2023-05-19T09:31:35.537Z,15.46
2023-05-19T09:32:34.937Z,15.46
2023-05-19T09:33:34.873Z,15.44
2023-05-19T09:34:34.840Z,15.49
2023-05-19T09:35:35.193Z,15.53
2023-05-19T09:36:34.853Z,15.57
2023-05-19T09:37:34.824Z,15.59
2023-05-19T09:38:34.794Z,15.62
2023-05-19T09:39:35.469Z,15.65
2023-05-19T09:40:34.791Z,15.64
2023-05-19T09:41:34.761Z,15.65
2023-05-19T09:42:34.794Z,15.65
2023-05-19T09:43:34.786Z,15.60
2023-05-19T09:44:34.757Z,15.65
2023-05-19T09:45:34.955Z,15.67
2023-05-19T09:46:34.887Z,15.68
2023-05-19T09:47:34.769Z,15.69
2023-05-19T09:48:37.083Z,15.74
2023-05-19T09:49:34.700Z,15.75
2023-05-19T09:50:34.677Z,15.82
2023-05-19T09:51:34.654Z,15.84
2023-05-19T09:52:35.480Z,15.89
2023-05-19T09:53:34.657Z,15.90
2023-05-19T09:54:34.649Z,15.94
2023-05-19T09:55:34.814Z,15.97
2023-05-19T09:56:34.620Z,16.04
2023-05-19T09:57:34.616Z,16.09
2023-05-19T09:58:34.618Z,16.14
2023-05-19T09:59:34.593Z,16.21
2023-05-19T10:00:34.954Z,16.28
2023-05-19T10:01:36.065Z,16.33
2023-05-19T10:02:34.574Z,16.41
2023-05-19T10:03:34.613Z,16.46
2023-05-19T10:04:34.640Z,16.57
2023-05-19T10:05:35.864Z,16.66
2023-05-19T10:06:34.506Z,16.75
2023-05-19T10:07:34.485Z,16.79
2023-05-19T10:08:34.511Z,16.82
2023-05-19T10:09:34.476Z,16.83
2023-05-19T10:10:34.464Z,16.78
2023-05-19T10:11:34.464Z,16.76
2023-05-19T10:12:34.450Z,16.78
2023-05-19T10:13:34.438Z,16.78
2023-05-19T10:14:35.555Z,16.82
2023-05-19T10:15:40.846Z,16.76
2023-05-19T10:16:35.441Z,16.76
2023-05-19T10:17:34.436Z,16.79
2023-05-19T10:18:34.436Z,16.78
2023-05-19T10:19:34.442Z,16.81
2023-05-19T10:20:34.816Z,16.85
2023-05-19T10:21:34.335Z,16.89
2023-05-19T10:22:34.359Z,16.94
2023-05-19T10:23:34.350Z,16.97
2023-05-19T10:24:34.310Z,16.94
2023-05-19T10:25:34.475Z,16.94
2023-05-19T10:26:34.288Z,16.97
2023-05-19T10:27:36.014Z,16.96
2023-05-19T10:28:34.297Z,16.96
2023-05-19T10:29:34.313Z,16.96
2023-05-19T10:30:34.259Z,16.97
2023-05-19T10:31:34.353Z,17.01
2023-05-19T10:32:34.366Z,17.01
2023-05-19T10:33:34.227Z,17.04
2023-05-19T10:34:35.513Z,17.07
2023-05-19T10:35:34.422Z,17.04
2023-05-19T10:36:34.297Z,17.03
2023-05-19T10:37:34.168Z,17.06
2023-05-19T10:38:34.185Z,17.08
2023-05-19T10:39:34.146Z,17.14
2023-05-19T10:40:35.992Z,17.18
2023-05-19T10:41:34.186Z,17.23
2023-05-19T10:42:34.129Z,17.28
2023-05-19T10:43:34.148Z,17.30
2023-05-19T10:44:34.093Z,17.30
2023-05-19T10:45:34.389Z,17.34
2023-05-19T10:46:34.142Z,17.36
2023-05-19T10:47:34.214Z,17.38
2023-05-19T10:48:34.064Z,17.43
2023-05-19T10:49:34.051Z,17.46
2023-05-19T10:50:34.073Z,17.48
2023-05-19T10:51:34.054Z,17.49
2023-05-19T10:52:34.107Z,17.51
2023-05-19T10:53:34.120Z,17.54
2023-05-19T10:54:34.004Z,17.52
2023-05-19T10:55:34.161Z,17.52
2023-05-19T10:56:34.049Z,17.54
2023-05-19T10:57:33.970Z,17.58
2023-05-19T10:58:35.710Z,17.62
2023-05-19T10:59:34.026Z,17.66
2023-05-19T11:00:33.957Z,17.71
2023-05-19T11:01:34.086Z,17.77
2023-05-19T11:02:33.939Z,17.82
2023-05-19T11:03:33.926Z,17.86
2023-05-19T11:04:33.990Z,17.89
2023-05-19T11:05:36.498Z,17.87
2023-05-19T11:06:35.498Z,17.89
2023-05-19T11:07:33.875Z,17.92
2023-05-19T11:08:33.877Z,17.95
2023-05-19T11:09:39.992Z,18.02
2023-05-19T11:10:35.498Z,18.12
2023-05-19T11:11:35.503Z,18.15
2023-05-19T11:12:34.506Z,18.20
2023-05-19T11:13:33.824Z,18.21
2023-05-19T11:14:33.798Z,18.20
2023-05-19T11:15:34.061Z,18.21
2023-05-19T11:16:33.806Z,18.25
2023-05-19T11:17:35.014Z,18.23
2023-05-19T11:18:35.560Z,18.15
2023-05-19T11:19:35.515Z,18.12
2023-05-19T11:20:33.766Z,18.17
2023-05-19T11:21:33.737Z,18.20
2023-05-19T11:22:33.698Z,18.21
2023-05-19T11:23:35.390Z,18.25
2023-05-19T11:24:35.548Z,18.25
2023-05-19T11:25:34.535Z,18.30
2023-05-19T11:26:33.654Z,18.35
2023-05-19T11:27:33.689Z,18.35
2023-05-19T11:28:33.647Z,18.37
2023-05-19T11:29:34.830Z,18.39
2023-05-19T11:30:33.608Z,18.41
2023-05-19T11:31:35.111Z,18.42
2023-05-19T11:32:35.093Z,18.47
2023-05-19T11:33:33.607Z,18.52
2023-05-19T11:34:33.569Z,18.62
2023-05-19T11:35:35.398Z,18.70
2023-05-19T11:36:33.558Z,18.76
2023-05-19T11:37:35.015Z,18.81
2023-05-19T11:38:35.005Z,18.87
2023-05-19T11:39:33.524Z,18.90
2023-05-19T11:40:33.517Z,18.91
2023-05-19T11:41:33.495Z,18.88
2023-05-19T11:42:33.551Z,18.84
2023-05-19T11:43:33.490Z,18.88
2023-05-19T11:44:34.041Z,18.88
2023-05-19T11:45:33.741Z,18.88
2023-05-19T11:46:33.482Z,18.90
2023-05-19T11:47:42.028Z,18.78
2023-05-19T11:48:34.426Z,18.84
2023-05-19T11:49:33.448Z,18.76
2023-05-19T11:50:35.013Z,18.70
2023-05-19T11:51:34.022Z,18.65
2023-05-19T11:52:33.394Z,18.65
2023-05-19T11:53:35.144Z,18.70
2023-05-19T11:54:33.353Z,18.80
2023-05-19T11:55:33.375Z,18.88
2023-05-19T11:56:33.409Z,18.98
2023-05-19T11:57:33.382Z,19.00
2023-05-19T11:58:34.048Z,19.07
2023-05-19T11:59:34.981Z,19.08
2023-05-19T12:00:33.302Z,19.14
2023-05-19T12:01:33.311Z,19.22
2023-05-19T12:02:33.387Z,19.28
2023-05-19T12:03:34.677Z,19.40
2023-05-19T12:04:34.067Z,19.44
2023-05-19T12:05:36.640Z,19.46
2023-05-19T12:06:34.371Z,19.43
2023-05-19T12:07:33.221Z,19.39
2023-05-19T12:08:33.199Z,19.28
2023-05-19T12:09:34.027Z,19.31
2023-05-19T12:10:33.187Z,19.41
2023-05-19T12:11:33.227Z,19.41
2023-05-19T12:12:33.173Z,19.47
2023-05-19T12:13:33.160Z,19.51
2023-05-19T12:14:33.156Z,19.46
2023-05-19T12:15:33.413Z,19.41
2023-05-19T12:16:34.618Z,19.54
2023-05-19T12:17:34.047Z,19.61
2023-05-19T12:18:33.103Z,19.63
2023-05-19T12:19:33.139Z,19.62
2023-05-19T12:20:33.112Z,19.63
2023-05-19T12:21:34.293Z,19.76
2023-05-19T12:22:34.024Z,19.84
2023-05-19T12:23:33.041Z,19.87
2023-05-19T12:24:33.063Z,19.86
2023-05-19T12:25:33.264Z,19.88
2023-05-19T12:26:33.016Z,19.94
2023-05-19T12:27:34.746Z,19.95
2023-05-19T12:28:33.019Z,19.84
2023-05-19T12:29:34.124Z,19.86
2023-05-19T12:30:33.910Z,19.99
2023-05-19T12:31:32.995Z,20.06
2023-05-19T12:32:32.961Z,20.17
2023-05-19T12:33:33.662Z,20.21
2023-05-19T12:34:32.960Z,20.21
2023-05-19T12:35:33.674Z,20.24
2023-05-19T12:36:32.941Z,20.23
2023-05-19T12:37:32.896Z,20.18
2023-05-19T12:38:35.529Z,20.10
2023-05-19T12:39:32.921Z,20.03
2023-05-19T12:40:33.076Z,20.02
2023-05-19T12:41:32.905Z,20.02
2023-05-19T12:42:33.653Z,20.03
2023-05-19T12:43:33.544Z,20.08
2023-05-19T12:44:32.900Z,20.13
2023-05-19T12:45:32.835Z,20.18
2023-05-19T12:46:32.939Z,20.29
2023-05-19T12:47:32.849Z,20.35
2023-05-19T12:48:33.543Z,20.41
2023-05-19T12:49:32.797Z,20.48
2023-05-19T12:50:33.077Z,20.51
2023-05-19T12:51:35.555Z,20.50
2023-05-19T12:52:32.786Z,20.38
2023-05-19T12:53:32.771Z,20.33
2023-05-19T12:54:32.797Z,20.29
2023-05-19T12:55:34.056Z,20.23
2023-05-19T12:56:33.597Z,20.14
2023-05-19T12:57:32.698Z,20.08
2023-05-19T12:58:32.701Z,20.02
2023-05-19T12:59:38.473Z,20.01
2023-05-19T13:00:33.930Z,20.06
2023-05-19T13:01:33.554Z,20.13
2023-05-19T13:02:32.758Z,20.24
2023-05-19T13:03:32.687Z,20.35